createdAt,value
2018-02-27T00:01:54.552Z,70.70
2018-02-27T00:04:20.799Z,70.80
2018-02-27T00:06:47.128Z,70.70
2018-02-27T00:09:13.511Z,70.00
2018-02-27T00:11:39.811Z,69.00
2018-02-27T00:14:06.279Z,67.80
2018-02-27T00:16:32.592Z,68.00
2018-02-27T00:18:59.667Z,66.30
2018-02-27T00:21:26.716Z,66.10
2018-02-27T00:23:53.016Z,66.30
2018-02-27T00:26:19.307Z,65.70
2018-02-27T00:28:45.587Z,66.00
2018-02-27T00:31:12.644Z,64.20
2018-02-27T00:33:39.701Z,64.30
2018-02-27T00:36:06.005Z,64.30
2018-02-27T00:38:32.267Z,63.00
2018-02-27T00:40:58.532Z,62.80
2018-02-27T00:43:24.836Z,61.60
2018-02-27T00:45:51.117Z,61.40
2018-02-27T00:48:17.416Z,60.50
2018-02-27T00:50:43.712Z,60.30
2018-02-27T00:53:10.000Z,60.40
2018-02-27T00:55:36.248Z,59.60
2018-02-27T00:58:02.528Z,59.00
2018-02-27T01:00:28.823Z,59.00
2018-02-27T01:02:55.859Z,59.20
2018-02-27T01:05:22.888Z,60.00
2018-02-27T01:07:49.185Z,59.80
2018-02-27T01:10:15.768Z,60.70
2018-02-27T01:12:42.810Z,62.30
2018-02-27T01:15:09.072Z,61.30
2018-02-27T01:17:35.366Z,61.50
2018-02-27T01:20:01.660Z,60.50
2018-02-27T01:22:27.944Z,60.00
2018-02-27T01:24:54.947Z,56.70
2018-02-27T01:27:21.301Z,56.70
2018-02-27T01:29:47.600Z,53.30
2018-02-27T01:32:13.876Z,51.70
2018-02-27T01:34:40.912Z,51.30
2018-02-27T01:37:07.285Z,51.30
2018-02-27T01:39:33.596Z,50.80
2018-02-27T01:42:00.612Z,51.70
2018-02-27T01:44:26.895Z,51.70
2018-02-27T01:46:53.200Z,51.90
2018-02-27T01:49:20.228Z,52.10
2018-02-27T01:51:46.535Z,52.00
2018-02-27T01:54:12.829Z,52.10
2018-02-27T01:56:39.121Z,52.20
2018-02-27T01:59:05.388Z,52.20
2018-02-27T02:01:31.680Z,52.80
2018-02-27T02:03:57.960Z,52.40
2018-02-27T02:06:24.223Z,52.80
2018-02-27T02:08:50.536Z,52.40
2018-02-27T02:11:16.829Z,52.80
2018-02-27T02:13:43.882Z,53.20
2018-02-27T02:16:10.177Z,53.00
2018-02-27T02:18:36.559Z,52.70
2018-02-27T02:21:02.880Z,52.90
2018-02-27T02:23:29.143Z,52.90
2018-02-27T02:25:55.439Z,53.50
2018-02-27T02:28:21.726Z,53.40
2018-02-27T02:30:47.994Z,53.50
2018-02-27T02:33:14.272Z,53.50
2018-02-27T02:35:40.549Z,53.40
2018-02-27T02:38:06.886Z,53.70
2018-02-27T02:40:33.908Z,53.70
2018-02-27T02:43:00.932Z,53.80
2018-02-27T02:45:27.217Z,53.60
2018-02-27T02:47:53.480Z,54.20
2018-02-27T02:50:19.785Z,54.10
2018-02-27T02:52:46.076Z,54.60
2018-02-27T02:55:12.343Z,55.20
2018-02-27T02:57:38.631Z,55.10
2018-02-27T03:00:05.660Z,54.80
2018-02-27T03:02:31.963Z,54.70
2018-02-27T03:04:58.234Z,54.60
2018-02-27T03:07:25.307Z,55.10
2018-02-27T03:09:52.365Z,54.80
2018-02-27T03:12:18.678Z,54.80
2018-02-27T03:14:45.712Z,54.80
2018-02-27T03:17:12.016Z,54.80
2018-02-27T03:19:38.292Z,54.60
2018-02-27T03:22:05.357Z,55.10
2018-02-27T03:24:31.640Z,54.90
2018-02-27T03:26:57.943Z,55.00
2018-02-27T03:29:24.240Z,55.10
2018-02-27T03:31:50.514Z,55.20
2018-02-27T03:34:16.812Z,55.40
2018-02-27T03:36:43.090Z,54.70
2018-02-27T03:39:09.383Z,55.00
2018-02-27T03:41:35.686Z,55.00
2018-02-27T03:44:01.944Z,55.20
2018-02-27T03:46:28.244Z,55.00
2018-02-27T03:48:54.528Z,54.90
2018-02-27T03:51:20.820Z,54.90
2018-02-27T03:53:47.108Z,55.00
2018-02-27T03:56:13.407Z,55.20
2018-02-27T03:58:39.694Z,55.10
2018-02-27T04:01:06.694Z,55.30
2018-02-27T04:03:32.991Z,55.30
2018-02-27T04:05:59.237Z,55.00
2018-02-27T04:08:25.609Z,54.30
2018-02-27T04:10:51.862Z,54.30
2018-02-27T04:13:18.849Z,53.90
2018-02-27T04:15:45.188Z,53.90
2018-02-27T04:18:11.434Z,54.00
2018-02-27T04:20:37.689Z,54.30
2018-02-27T04:23:04.696Z,55.20
2018-02-27T04:25:30.945Z,55.10
2018-02-27T04:27:57.202Z,55.10
2018-02-27T04:30:23.468Z,55.10
2018-02-27T04:32:49.708Z,55.40
2018-02-27T04:35:15.960Z,56.00
2018-02-27T04:37:42.226Z,55.70
2018-02-27T04:40:08.552Z,55.90
2018-02-27T04:42:34.823Z,56.20
2018-02-27T04:45:01.111Z,56.40
2018-02-27T04:47:28.128Z,56.90
2018-02-27T04:49:54.428Z,57.10
2018-02-27T04:52:20.951Z,57.10
2018-02-27T04:54:47.228Z,57.20
2018-02-27T04:57:13.540Z,57.20
2018-02-27T04:59:39.835Z,57.30
2018-02-27T05:02:06.119Z,57.40
2018-02-27T05:04:32.705Z,58.20
2018-02-27T05:06:58.982Z,58.40
2018-02-27T05:09:25.255Z,58.90
2018-02-27T05:11:51.543Z,59.70
2018-02-27T05:14:17.856Z,59.50
2018-02-27T05:16:44.155Z,60.20
2018-02-27T05:19:10.420Z,60.80
2018-02-27T05:21:36.691Z,60.80
2018-02-27T05:24:03.712Z,61.00
2018-02-27T05:26:29.980Z,61.00
2018-02-27T05:28:56.515Z,61.80
2018-02-27T05:31:22.833Z,61.70
2018-02-27T05:33:49.850Z,63.00
2018-02-27T05:36:16.123Z,63.00
2018-02-27T05:38:42.412Z,63.10
2018-02-27T05:41:08.710Z,63.40
2018-02-27T05:43:34.970Z,64.10
2018-02-27T05:46:01.259Z,64.70
2018-02-27T05:48:27.562Z,64.50
2018-02-27T05:50:53.834Z,64.90
2018-02-27T05:53:20.117Z,65.10
2018-02-27T05:55:47.126Z,65.80
2018-02-27T05:58:13.435Z,65.50
2018-02-27T06:00:39.724Z,66.10
2018-02-27T06:03:06.714Z,66.60
2018-02-27T06:05:33.005Z,66.60
2018-02-27T06:07:59.335Z,66.60
2018-02-27T06:10:26.371Z,67.90
2018-02-27T06:12:52.683Z,67.60
2018-02-27T06:15:18.947Z,68.00
2018-02-27T06:17:45.271Z,68.10
2018-02-27T06:20:11.655Z,68.10
2018-02-27T06:22:37.919Z,68.00
2018-02-27T06:25:04.949Z,67.90
2018-02-27T06:27:31.215Z,68.00
2018-02-27T06:29:57.768Z,68.00
2018-02-27T06:32:24.052Z,68.00
2018-02-27T06:34:50.315Z,68.60
2018-02-27T06:37:16.609Z,69.70
2018-02-27T06:39:42.870Z,68.60
2018-02-27T06:42:09.183Z,68.70
2018-02-27T06:44:35.514Z,68.90
2018-02-27T06:47:02.559Z,69.00
2018-02-27T06:49:29.664Z,68.70
2018-02-27T06:51:55.987Z,68.90
2018-02-27T06:54:22.283Z,68.20
2018-02-27T06:56:48.591Z,68.00
2018-02-27T06:59:15.688Z,67.60
2018-02-27T07:01:41.979Z,67.80
2018-02-27T07:04:09.049Z,67.40
2018-02-27T07:06:35.384Z,67.10
2018-02-27T07:09:01.782Z,64.20
2018-02-27T07:11:28.069Z,59.40
2018-02-27T07:13:54.362Z,58.00
2018-02-27T07:16:21.396Z,57.30
2018-02-27T07:18:47.751Z,57.30
2018-02-27T07:21:14.054Z,56.80
2018-02-27T07:23:40.354Z,55.00
2018-02-27T07:26:06.644Z,55.70
2018-02-27T07:28:32.958Z,54.10
2018-02-27T07:30:59.241Z,51.50
2018-02-27T07:33:25.589Z,50.20
2018-02-27T07:35:51.874Z,50.50
2018-02-27T07:38:18.199Z,48.60
2018-02-27T07:40:44.848Z,50.50
2018-02-27T07:43:11.135Z,49.60
2018-02-27T07:45:37.407Z,49.30
2018-02-27T07:48:03.717Z,50.60
2018-02-27T07:50:30.748Z,48.20
2018-02-27T07:52:57.760Z,47.60
2018-02-27T07:55:24.086Z,47.40
2018-02-27T07:57:50.372Z,51.70
2018-02-27T08:00:16.645Z,49.10
2018-02-27T08:02:42.987Z,48.30
2018-02-27T08:05:09.255Z,45.00
2018-02-27T08:07:36.288Z,45.90
2018-02-27T08:10:03.383Z,46.50
2018-02-27T08:12:29.698Z,46.40
2018-02-27T08:14:55.971Z,45.90
2018-02-27T08:17:22.288Z,44.00
2018-02-27T08:19:48.568Z,43.30
2018-02-27T08:22:15.612Z,43.10
2018-02-27T08:24:42.906Z,44.00
2018-02-27T08:27:09.215Z,43.90
2018-02-27T08:29:35.511Z,41.90
2018-02-27T08:32:01.815Z,39.70
2018-02-27T08:34:28.108Z,37.70
2018-02-27T08:36:54.383Z,35.80
2018-02-27T08:39:20.705Z,37.10
2018-02-27T08:41:47.703Z,36.00
2018-02-27T08:44:14.745Z,37.50
2018-02-27T08:46:41.785Z,37.60
2018-02-27T08:49:08.819Z,36.00
2018-02-27T08:51:35.092Z,36.00
2018-02-27T08:54:01.412Z,33.80
2018-02-27T08:56:27.691Z,33.40
2018-02-27T08:58:53.995Z,34.20
2018-02-27T09:01:20.561Z,33.20
2018-02-27T09:03:46.878Z,33.70
2018-02-27T09:06:13.193Z,33.90
2018-02-27T09:08:39.534Z,33.20
2018-02-27T09:11:05.972Z,33.10
2018-02-27T09:13:32.308Z,31.70
2018-02-27T09:15:58.669Z,32.70
2018-02-27T09:18:25.007Z,32.50
2018-02-27T09:20:52.038Z,30.50
2018-02-27T09:23:18.586Z,30.50
2018-02-27T09:25:44.879Z,30.00
2018-02-27T09:28:11.163Z,30.70
2018-02-27T09:30:37.492Z,29.40
2018-02-27T09:33:04.499Z,28.10
2018-02-27T09:35:30.859Z,27.90
2018-02-27T09:37:57.208Z,28.40
2018-02-27T09:40:23.520Z,28.70
2018-02-27T09:42:49.788Z,27.60
2018-02-27T09:45:16.108Z,28.50
2018-02-27T09:47:43.127Z,27.30
2018-02-27T09:50:09.400Z,26.30
2018-02-27T09:52:35.727Z,26.90
2018-02-27T09:55:02.017Z,26.90
2018-02-27T09:57:28.284Z,26.80
2018-02-27T09:59:54.858Z,26.50
2018-02-27T10:02:21.162Z,27.40
2018-02-27T10:04:47.452Z,27.40
2018-02-27T10:07:13.751Z,26.60
2018-02-27T10:09:40.048Z,26.20
2018-02-27T10:12:06.350Z,25.90
2018-02-27T10:14:33.415Z,24.80
2018-02-27T10:16:59.776Z,24.90
2018-02-27T10:19:26.065Z,25.30
2018-02-27T10:21:53.128Z,25.20
2018-02-27T10:24:19.396Z,25.20
2018-02-27T10:26:45.683Z,23.70
2018-02-27T10:29:12.021Z,24.40
2018-02-27T10:31:38.289Z,24.10
2018-02-27T10:34:04.571Z,24.00
2018-02-27T10:36:30.940Z,23.70
2018-02-27T10:38:57.207Z,23.90
2018-02-27T10:41:23.479Z,23.90
2018-02-27T10:43:49.775Z,24.00
2018-02-27T10:46:16.809Z,24.20
2018-02-27T10:48:43.114Z,24.00
2018-02-27T10:51:09.423Z,23.40
2018-02-27T10:53:36.439Z,22.90
2018-02-27T10:56:03.460Z,22.70
2018-02-27T10:58:30.054Z,22.70
2018-02-27T11:00:57.369Z,22.80
2018-02-27T11:03:24.414Z,22.30
2018-02-27T11:05:51.452Z,23.20
2018-02-27T11:08:17.802Z,23.20
2018-02-27T11:10:44.861Z,22.70
2018-02-27T11:13:12.923Z,23.10
2018-02-27T11:15:39.977Z,23.20
2018-02-27T11:18:06.269Z,22.60
2018-02-27T11:20:32.571Z,22.60
2018-02-27T11:22:58.832Z,21.90
2018-02-27T11:25:25.116Z,21.40
2018-02-27T11:27:51.444Z,21.40
2018-02-27T11:30:17.796Z,21.40
2018-02-27T11:32:44.115Z,21.80
2018-02-27T11:35:10.455Z,22.50
2018-02-27T11:37:36.776Z,22.60
2018-02-27T11:40:03.076Z,21.90
2018-02-27T11:42:29.407Z,21.40
2018-02-27T11:44:55.726Z,21.70
2018-02-27T11:47:22.002Z,22.20
2018-02-27T11:49:48.312Z,21.60
2018-02-27T11:52:14.585Z,21.30
2018-02-27T11:54:40.919Z,21.40
2018-02-27T11:57:07.249Z,21.50
2018-02-27T11:59:33.520Z,21.50
2018-02-27T12:01:59.815Z,20.30
2018-02-27T12:04:26.092Z,21.30
2018-02-27T12:06:52.365Z,21.30
2018-02-27T12:09:18.630Z,21.20
2018-02-27T12:11:44.980Z,20.60
2018-02-27T12:14:11.292Z,20.70
2018-02-27T12:16:37.571Z,20.40
2018-02-27T12:19:03.937Z,20.90
2018-02-27T12:21:31.381Z,21.70
2018-02-27T12:23:57.965Z,21.60
2018-02-27T12:26:24.268Z,21.20
2018-02-27T12:28:51.301Z,21.50
2018-02-27T12:31:17.579Z,21.20
2018-02-27T12:33:43.886Z,21.60
2018-02-27T12:36:10.909Z,20.80
2018-02-27T12:38:37.178Z,20.90
2018-02-27T12:41:03.807Z,20.70
2018-02-27T12:43:30.891Z,20.70
2018-02-27T12:45:57.143Z,20.80
2018-02-27T12:48:23.538Z,20.60
2018-02-27T12:50:49.840Z,20.40
2018-02-27T12:53:16.148Z,20.70
2018-02-27T12:55:42.445Z,21.20
2018-02-27T12:58:08.749Z,20.40
2018-02-27T13:00:35.046Z,21.00
2018-02-27T13:03:01.339Z,21.30
2018-02-27T13:05:27.644Z,20.30
2018-02-27T13:07:54.707Z,20.70
2018-02-27T13:10:21.015Z,19.90
2018-02-27T13:12:47.341Z,20.60
2018-02-27T13:15:14.443Z,19.90
2018-02-27T13:17:40.756Z,19.80
2018-02-27T13:20:07.066Z,20.20
2018-02-27T13:22:34.223Z,19.10
2018-02-27T13:25:00.516Z,19.20
2018-02-27T13:27:26.896Z,19.30
2018-02-27T13:29:53.204Z,18.50
2018-02-27T13:32:19.511Z,18.80
2018-02-27T13:34:46.531Z,18.80
2018-02-27T13:37:12.812Z,19.00
2018-02-27T13:39:39.124Z,19.30
2018-02-27T13:42:06.170Z,19.40
2018-02-27T13:44:33.177Z,19.30
2018-02-27T13:46:59.479Z,19.40
2018-02-27T13:49:25.745Z,19.70
2018-02-27T13:51:52.151Z,19.80
2018-02-27T13:54:18.450Z,20.20
2018-02-27T13:56:44.767Z,18.40
2018-02-27T13:59:11.860Z,19.40
2018-02-27T14:01:38.495Z,19.40
2018-02-27T14:04:04.751Z,20.40
2018-02-27T14:06:31.040Z,21.20
2018-02-27T14:08:58.076Z,20.70
2018-02-27T14:11:25.147Z,21.10
2018-02-27T14:13:51.439Z,20.90
2018-02-27T14:16:18.483Z,21.50
2018-02-27T14:18:44.817Z,21.40
2018-02-27T14:21:11.088Z,21.40
2018-02-27T14:23:37.375Z,22.40
2018-02-27T14:26:03.719Z,21.90
2018-02-27T14:28:30.803Z,21.50
2018-02-27T14:30:57.435Z,21.60
2018-02-27T14:33:23.720Z,21.90
2018-02-27T14:35:49.988Z,22.80
2018-02-27T14:38:16.288Z,22.10
2018-02-27T14:40:42.572Z,22.40
2018-02-27T14:43:08.852Z,22.60
2018-02-27T14:45:36.240Z,21.80
2018-02-27T14:48:02.556Z,21.70
2018-02-27T14:50:28.829Z,20.90
2018-02-27T14:52:55.182Z,21.50
2018-02-27T14:55:21.460Z,21.30
2018-02-27T14:57:47.756Z,21.30
2018-02-27T15:00:14.876Z,21.90
2018-02-27T15:02:41.156Z,21.80
2018-02-27T15:05:07.465Z,21.40
2018-02-27T15:07:34.518Z,23.00
2018-02-27T15:10:01.562Z,21.60
2018-02-27T15:12:28.645Z,21.50
2018-02-27T15:14:54.971Z,21.40
2018-02-27T15:17:21.267Z,21.20
2018-02-27T15:19:47.545Z,21.60
2018-02-27T15:22:13.859Z,22.40
2018-02-27T15:24:40.124Z,23.20
2018-02-27T15:27:06.435Z,23.10
2018-02-27T15:29:32.723Z,23.00
2018-02-27T15:31:59.809Z,21.10
2018-02-27T15:34:26.172Z,21.00
2018-02-27T15:36:52.874Z,21.80
2018-02-27T15:39:19.153Z,22.50
2018-02-27T15:41:45.436Z,23.40
2018-02-27T15:44:11.785Z,22.30
2018-02-27T15:46:38.084Z,22.40
2018-02-27T15:49:04.352Z,22.70
2018-02-27T15:51:30.948Z,23.60
2018-02-27T15:53:57.250Z,23.70
2018-02-27T15:56:23.549Z,23.50
2018-02-27T15:58:49.893Z,23.00
2018-02-27T16:01:16.225Z,23.40
2018-02-27T16:03:42.516Z,24.10
2018-02-27T16:06:08.821Z,24.80
2018-02-27T16:08:35.853Z,25.40
2018-02-27T16:11:02.192Z,25.40
2018-02-27T16:13:29.231Z,26.10
2018-02-27T16:15:55.518Z,26.10
2018-02-27T16:18:21.798Z,25.90
2018-02-27T16:20:48.868Z,26.10
2018-02-27T16:23:15.879Z,26.80
2018-02-27T16:25:42.210Z,26.80
2018-02-27T16:28:08.487Z,26.50
2018-02-27T16:30:34.777Z,26.00
2018-02-27T16:33:01.151Z,27.10
2018-02-27T16:35:27.480Z,27.20
2018-02-27T16:37:53.791Z,28.00
2018-02-27T16:40:20.799Z,27.30
2018-02-27T16:42:47.166Z,28.10
2018-02-27T16:45:13.444Z,28.00
2018-02-27T16:47:39.739Z,28.20
2018-02-27T16:50:06.780Z,28.20
2018-02-27T16:52:33.862Z,28.10
2018-02-27T16:55:00.136Z,28.20
2018-02-27T16:57:26.421Z,27.30
2018-02-27T16:59:52.689Z,28.60
2018-02-27T17:02:18.960Z,28.80
2018-02-27T17:04:45.252Z,28.80
2018-02-27T17:07:12.295Z,29.90
2018-02-27T17:09:38.592Z,30.10
2018-02-27T17:12:04.939Z,30.10
2018-02-27T17:14:31.226Z,30.20
2018-02-27T17:16:57.560Z,30.60
2018-02-27T17:19:23.888Z,30.40
2018-02-27T17:21:50.185Z,30.20
2018-02-27T17:24:16.456Z,30.50
2018-02-27T17:26:42.756Z,30.20
2018-02-27T17:29:09.791Z,31.00
2018-02-27T17:31:36.863Z,31.50
2018-02-27T17:34:03.172Z,31.50
2018-02-27T17:36:29.460Z,31.90
2018-02-27T17:38:55.804Z,32.30
2018-02-27T17:41:22.151Z,32.50
2018-02-27T17:43:48.447Z,31.10
2018-02-27T17:46:14.773Z,32.80
2018-02-27T17:48:41.068Z,33.30
2018-02-27T17:51:08.105Z,33.90
2018-02-27T17:53:35.134Z,33.80
2018-02-27T17:56:01.476Z,33.90
2018-02-27T17:58:27.791Z,34.40
2018-02-27T18:00:54.115Z,34.70
2018-02-27T18:03:20.459Z,34.90
2018-02-27T18:05:46.816Z,35.10
2018-02-27T18:08:13.854Z,35.00
2018-02-27T18:10:40.189Z,35.20
2018-02-27T18:13:07.234Z,35.30
2018-02-27T18:15:33.551Z,35.30
2018-02-27T18:17:59.921Z,35.70
2018-02-27T18:20:26.234Z,35.70
2018-02-27T18:22:53.306Z,36.10
2018-02-27T18:25:19.652Z,36.00
2018-02-27T18:27:45.949Z,34.70
2018-02-27T18:30:13.043Z,36.10
2018-02-27T18:32:39.355Z,36.50
2018-02-27T18:35:05.745Z,36.10
2018-02-27T18:37:32.780Z,36.20
2018-02-27T18:39:59.156Z,36.10
2018-02-27T18:42:25.477Z,36.30
2018-02-27T18:44:51.775Z,36.30
2018-02-27T18:47:18.848Z,36.50
2018-02-27T18:49:45.900Z,36.70
2018-02-27T18:52:12.908Z,36.90
2018-02-27T18:54:39.219Z,36.60
2018-02-27T18:57:05.511Z,36.60
2018-02-27T18:59:31.876Z,36.40
2018-02-27T19:01:58.164Z,37.00
2018-02-27T19:04:25.184Z,37.00
2018-02-27T19:06:51.491Z,36.90
2018-02-27T19:09:17.842Z,37.40
2018-02-27T19:11:44.131Z,37.00
2018-02-27T19:14:10.441Z,35.90
2018-02-27T19:16:36.744Z,37.70
2018-02-27T19:19:03.805Z,38.20
2018-02-27T19:21:30.540Z,38.40
2018-02-27T19:23:57.607Z,38.40
2018-02-27T19:26:23.981Z,38.40
2018-02-27T19:28:50.250Z,38.30
2018-02-27T19:31:16.680Z,39.20
2018-02-27T19:33:43.013Z,39.40
2018-02-27T19:36:09.326Z,39.50
2018-02-27T19:38:35.619Z,39.60
2018-02-27T19:41:01.916Z,39.80
2018-02-27T19:43:28.195Z,39.10
2018-02-27T19:45:54.496Z,39.60
2018-02-27T19:48:21.568Z,40.60
2018-02-27T19:50:48.059Z,38.70
2018-02-27T19:53:14.476Z,40.90
2018-02-27T19:55:40.797Z,41.00
2018-02-27T19:58:07.080Z,41.30
2018-02-27T20:00:33.411Z,41.20
2018-02-27T20:02:59.692Z,41.30
2018-02-27T20:05:26.096Z,41.30
2018-02-27T20:07:52.416Z,41.50
2018-02-27T20:10:18.715Z,41.70
2018-02-27T20:12:45.796Z,41.90
2018-02-27T20:15:12.365Z,41.60
2018-02-27T20:17:44.695Z,41.50
2018-02-27T20:20:11.020Z,41.70
2018-02-27T20:22:43.580Z,42.40
2018-02-27T20:25:10.620Z,43.00
2018-02-27T20:27:37.687Z,43.20
2018-02-27T20:30:04.743Z,43.00
2018-02-27T20:32:31.032Z,43.50
2018-02-27T20:34:57.380Z,43.30
2018-02-27T20:37:23.705Z,43.30
2018-02-27T20:39:51.126Z,43.20
2018-02-27T20:42:17.469Z,43.40
2018-02-27T20:44:43.795Z,43.10
2018-02-27T20:47:10.136Z,43.20
2018-02-27T20:49:36.416Z,43.10
2018-02-27T20:52:02.824Z,43.50
2018-02-27T20:54:29.099Z,43.40
2018-02-27T20:56:55.556Z,44.40
2018-02-27T20:59:21.892Z,44.50
2018-02-27T21:01:48.220Z,45.00
2018-02-27T21:04:14.525Z,45.30
2018-02-27T21:06:40.815Z,45.90
2018-02-27T21:09:07.892Z,45.40
2018-02-27T21:11:34.200Z,45.00
2018-02-27T21:14:01.308Z,45.80
2018-02-27T21:16:27.595Z,45.80
2018-02-27T21:18:53.894Z,45.70
2018-02-27T21:21:20.976Z,45.90
2018-02-27T21:23:47.324Z,45.90
2018-02-27T21:26:13.716Z,45.80
2018-02-27T21:28:40.078Z,46.50
2018-02-27T21:31:07.117Z,46.70
2018-02-27T21:33:33.436Z,46.60
2018-02-27T21:35:59.756Z,46.40
2018-02-27T21:38:26.872Z,46.40
2018-02-27T21:40:53.233Z,46.20
2018-02-27T21:43:19.536Z,47.00
2018-02-27T21:45:45.869Z,47.00
2018-02-27T21:48:12.162Z,47.00
2018-02-27T21:50:38.509Z,47.30
2018-02-27T21:53:04.803Z,47.00
2018-02-27T21:55:31.149Z,47.50
2018-02-27T21:57:58.217Z,47.70
2018-02-27T22:00:24.533Z,47.50
2018-02-27T22:02:50.827Z,47.60
2018-02-27T22:05:17.880Z,48.50
2018-02-27T22:07:44.906Z,47.90
2018-02-27T22:10:11.229Z,47.50
2018-02-27T22:12:37.535Z,47.90
2018-02-27T22:15:04.063Z,48.40
2018-02-27T22:17:30.431Z,48.70
2018-02-27T22:19:56.739Z,48.30
2018-02-27T22:22:23.060Z,48.40
2018-02-27T22:24:49.380Z,48.10
2018-02-27T22:27:15.669Z,48.20
2018-02-27T22:29:41.973Z,48.90
2018-02-27T22:32:08.295Z,48.70
2018-02-27T22:34:34.628Z,48.90
2018-02-27T22:37:00.950Z,49.20
2018-02-27T22:39:27.207Z,49.40
2018-02-27T22:41:53.485Z,49.20
2018-02-27T22:44:19.755Z,49.30
2018-02-27T22:46:46.849Z,49.70
2018-02-27T22:49:13.871Z,50.30
2018-02-27T22:51:40.474Z,50.10
2018-02-27T22:54:07.052Z,49.40
2018-02-27T22:56:33.347Z,49.20
2018-02-27T22:58:59.668Z,49.70
2018-02-27T23:01:25.946Z,49.50
2018-02-27T23:03:52.351Z,49.80
2018-02-27T23:06:18.681Z,49.50
2018-02-27T23:08:45.020Z,49.70
2018-02-27T23:11:11.333Z,49.60
2018-02-27T23:13:37.674Z,49.90
2018-02-27T23:16:03.988Z,49.90
2018-02-27T23:18:30.292Z,50.00
2018-02-27T23:20:57.332Z,50.20
2018-02-27T23:23:23.628Z,49.90
2018-02-27T23:28:59.632Z,50.00
2018-02-27T23:31:27.272Z,50.40
2018-02-27T23:34:01.116Z,50.50
2018-02-27T23:36:27.448Z,50.60
2018-02-27T23:38:53.763Z,49.30
2018-02-27T23:41:20.927Z,49.40
2018-02-27T23:43:47.950Z,49.40
2018-02-27T23:46:15.041Z,50.10
2018-02-27T23:48:41.332Z,50.10
2018-02-27T23:51:08.364Z,49.90
2018-02-27T23:53:34.675Z,49.90
2018-02-27T23:56:00.991Z,49.90
2018-02-27T23:58:27.300Z,49.40
